createdAt,value
2022-11-05T00:00:38.150Z,27.10
2022-11-05T00:03:30.401Z,21.55
2022-11-05T00:06:16.771Z,25.33
2022-11-05T00:09:03.717Z,25.13
2022-11-05T00:11:50.198Z,22.27
2022-11-05T00:14:36.486Z,24.65
2022-11-05T00:17:04.136Z,29.00
2022-11-05T00:19:32.026Z,22.52
2022-11-05T00:22:18.362Z,24.90
2022-11-05T00:25:04.996Z,20.58
2022-11-05T00:27:34.275Z,20.33
2022-11-05T00:30:07.115Z,24.70
2022-11-05T00:32:37.133Z,23.50
2022-11-05T00:35:07.034Z,25.90
2022-11-05T00:37:35.009Z,23.60
2022-11-05T00:40:03.913Z,30.73
2022-11-05T00:42:50.048Z,25.83
2022-11-05T00:45:18.140Z,22.27
2022-11-05T00:48:24.488Z,25.40
2022-11-05T00:50:52.410Z,23.40
2022-11-05T00:53:20.107Z,21.10
2022-11-05T00:55:48.472Z,22.15
2022-11-05T00:58:19.189Z,23.75
2022-11-05T01:00:58.123Z,25.52
2022-11-05T01:03:31.503Z,20.88
2022-11-05T01:06:08.208Z,23.27
2022-11-05T01:08:36.060Z,25.48
2022-11-05T01:11:11.016Z,22.63
2022-11-05T01:13:40.246Z,24.30
2022-11-05T01:16:10.094Z,21.08
2022-11-05T01:18:38.933Z,23.80
2022-11-05T01:21:16.041Z,24.58
2022-11-05T01:23:43.820Z,23.45
2022-11-05T01:26:11.853Z,22.67
2022-11-05T01:28:40.770Z,24.52
2022-11-05T01:31:08.763Z,26.15
2022-11-05T01:33:36.487Z,23.60
2022-11-05T01:36:05.940Z,22.85
2022-11-05T01:38:33.675Z,21.35
2022-11-05T01:41:01.797Z,25.83
2022-11-05T01:43:45.330Z,25.67
2022-11-05T01:46:14.272Z,25.15
2022-11-05T01:48:41.965Z,20.63
2022-11-05T01:51:13.728Z,22.80
2022-11-05T01:54:09.950Z,28.55
2022-11-05T01:57:00.808Z,27.65
2022-11-05T01:59:37.023Z,26.15
2022-11-05T02:02:07.856Z,27.02
2022-11-05T02:04:47.873Z,24.60
2022-11-05T02:07:17.343Z,28.10
2022-11-05T02:09:54.921Z,27.13
2022-11-05T02:12:24.148Z,28.08
2022-11-05T02:14:51.830Z,29.42
2022-11-05T02:17:41.664Z,25.02
2022-11-05T02:20:13.024Z,29.20
2022-11-05T02:23:02.135Z,31.23
2022-11-05T02:25:35.521Z,25.35
2022-11-05T02:28:39.219Z,24.50
2022-11-05T02:31:22.839Z,27.50
2022-11-05T02:33:57.802Z,24.13
2022-11-05T02:36:40.020Z,30.83
2022-11-05T02:39:16.491Z,27.42
2022-11-05T02:42:02.037Z,34.45
2022-11-05T02:44:47.757Z,28.55
2022-11-05T02:47:46.187Z,31.77
2022-11-05T02:50:40.193Z,28.02
2022-11-05T02:53:27.868Z,28.65
2022-11-05T02:56:19.266Z,27.25
2022-11-05T02:58:46.904Z,27.30
2022-11-05T03:01:15.319Z,26.15
2022-11-05T03:03:48.570Z,27.77
2022-11-05T03:06:58.708Z,30.50
2022-11-05T03:10:00.315Z,29.02
2022-11-05T03:12:42.149Z,29.45
2022-11-05T03:15:32.746Z,24.70
2022-11-05T03:18:31.056Z,28.65
2022-11-05T03:21:18.181Z,28.05
2022-11-05T03:23:52.005Z,27.77
2022-11-05T03:26:19.779Z,30.20
2022-11-05T03:28:56.393Z,26.17
2022-11-05T03:31:28.186Z,28.70
2022-11-05T03:33:59.506Z,25.15
2022-11-05T03:36:44.980Z,31.65
2022-11-05T03:39:19.197Z,29.30
2022-11-05T03:41:51.949Z,29.23
2022-11-05T03:44:27.035Z,26.57
2022-11-05T03:47:00.794Z,28.23
2022-11-05T03:52:19.894Z,29.65
2022-11-05T03:54:47.992Z,27.10
2022-11-05T03:57:29.591Z,26.42
2022-11-05T03:59:57.682Z,27.20
2022-11-05T04:02:27.220Z,25.90
2022-11-05T04:04:55.488Z,31.38
2022-11-05T04:07:41.794Z,29.42
2022-11-05T04:10:28.844Z,31.15
2022-11-05T04:13:15.065Z,30.88
2022-11-05T04:16:01.689Z,28.08
2022-11-05T04:18:29.420Z,28.45
2022-11-05T04:21:16.076Z,29.73
2022-11-05T04:24:02.508Z,27.75
2022-11-05T04:26:30.477Z,29.30
2022-11-05T04:29:16.538Z,30.25
2022-11-05T04:31:44.459Z,31.13
2022-11-05T04:34:12.095Z,29.25
2022-11-05T04:36:40.069Z,28.15
2022-11-05T04:39:07.775Z,30.73
2022-11-05T04:41:35.669Z,32.90
2022-11-05T04:44:03.454Z,35.40
2022-11-05T04:46:31.405Z,30.73
2022-11-05T04:48:59.122Z,30.17
2022-11-05T04:51:27.352Z,32.20
2022-11-05T04:53:55.147Z,33.30
2022-11-05T04:56:24.643Z,33.47
2022-11-05T04:58:52.313Z,33.05
2022-11-05T05:01:22.870Z,30.05
2022-11-05T05:03:51.994Z,29.65
2022-11-05T05:06:20.272Z,34.05
2022-11-05T05:08:49.469Z,28.38
2022-11-05T05:11:19.566Z,31.13
2022-11-05T05:13:47.998Z,28.83
2022-11-05T05:16:23.439Z,32.03
2022-11-05T05:18:51.882Z,33.08
2022-11-05T05:21:40.474Z,35.78
2022-11-05T05:24:14.433Z,33.28
2022-11-05T05:26:48.138Z,37.17
2022-11-05T05:29:16.775Z,32.88
2022-11-05T05:31:45.237Z,34.05
2022-11-05T05:34:14.371Z,34.10
2022-11-05T05:36:42.428Z,34.08
2022-11-05T05:39:12.872Z,34.05
2022-11-05T05:41:40.805Z,37.78
2022-11-05T05:44:08.808Z,35.58
2022-11-05T05:46:36.772Z,40.28
2022-11-05T05:49:11.062Z,39.50
2022-11-05T05:51:40.445Z,34.38
2022-11-05T05:54:08.141Z,37.60
2022-11-05T05:56:36.054Z,34.47
2022-11-05T05:59:04.995Z,31.13
2022-11-05T06:01:33.002Z,33.10
2022-11-05T06:04:00.824Z,30.20
2022-11-05T06:06:28.935Z,34.60
2022-11-05T06:08:56.691Z,32.25
2022-11-05T06:11:25.829Z,35.63
2022-11-05T06:13:53.463Z,28.90
2022-11-05T06:16:21.446Z,32.15
2022-11-05T06:18:49.387Z,28.42
2022-11-05T06:21:18.119Z,33.90
2022-11-05T06:23:48.369Z,30.77
2022-11-05T06:26:18.615Z,30.27
2022-11-05T06:28:46.667Z,33.65
2022-11-05T06:31:15.405Z,30.10
2022-11-05T06:33:43.228Z,32.55
2022-11-05T06:36:16.286Z,31.60
2022-11-05T06:38:44.342Z,29.55
2022-11-05T06:41:12.403Z,34.55
2022-11-05T06:43:40.367Z,32.72
2022-11-05T06:46:09.923Z,31.77
2022-11-05T06:48:38.066Z,31.17
2022-11-05T06:51:08.209Z,33.28
2022-11-05T06:53:36.831Z,27.40
2022-11-05T06:56:06.944Z,32.53
2022-11-05T06:58:35.279Z,30.30
2022-11-05T07:01:05.412Z,29.77
2022-11-05T07:03:33.052Z,29.95
2022-11-05T07:06:03.169Z,32.13
2022-11-05T07:08:38.070Z,31.75
2022-11-05T07:11:06.390Z,29.30
2022-11-05T07:13:34.167Z,33.22
2022-11-05T07:16:02.180Z,31.95
2022-11-05T07:18:29.930Z,35.78
2022-11-05T07:21:00.743Z,33.70
2022-11-05T07:23:28.662Z,32.20
2022-11-05T07:25:56.608Z,29.60
2022-11-05T07:28:24.218Z,31.88
2022-11-05T07:30:52.323Z,34.15
2022-11-05T07:33:20.061Z,32.67
2022-11-05T07:35:47.933Z,36.15
2022-11-05T07:38:15.615Z,30.08
2022-11-05T07:40:43.579Z,31.50
2022-11-05T07:43:11.462Z,36.88
2022-11-05T07:45:39.489Z,37.15
2022-11-05T07:48:07.541Z,29.08
2022-11-05T07:50:36.896Z,37.10
2022-11-05T07:53:13.080Z,33.97
2022-11-05T07:55:42.550Z,37.03
2022-11-05T07:58:11.137Z,35.17
2022-11-05T08:00:39.262Z,32.60
2022-11-05T08:03:18.331Z,34.40
2022-11-05T08:05:48.075Z,37.17
2022-11-05T08:08:18.956Z,32.83
2022-11-05T08:10:47.495Z,37.00
2022-11-05T08:13:16.229Z,32.78
2022-11-05T08:15:44.973Z,33.30
2022-11-05T08:18:17.493Z,31.20
2022-11-05T08:20:47.808Z,34.42
2022-11-05T08:23:15.926Z,34.13
2022-11-05T08:25:44.017Z,33.63
2022-11-05T08:28:13.057Z,44.17
2022-11-05T08:30:41.361Z,33.97
2022-11-05T08:33:13.633Z,34.90
2022-11-05T08:35:42.047Z,35.38
2022-11-05T08:38:13.861Z,41.45
2022-11-05T08:40:43.240Z,41.72
2022-11-05T08:43:13.234Z,37.17
2022-11-05T08:45:42.428Z,41.50
2022-11-05T08:48:12.727Z,36.40
2022-11-05T08:50:41.246Z,41.90
2022-11-05T08:53:10.121Z,36.30
2022-11-05T08:55:38.682Z,34.55
2022-11-05T08:58:12.444Z,44.33
2022-11-05T09:03:10.602Z,34.78
2022-11-05T09:05:40.877Z,39.53
2022-11-05T09:08:10.615Z,38.67
2022-11-05T09:10:38.593Z,37.15
2022-11-05T09:13:06.745Z,38.33
2022-11-05T09:15:38.442Z,40.13
2022-11-05T09:18:06.302Z,34.55
2022-11-05T09:20:36.517Z,39.58
2022-11-05T09:23:04.559Z,37.85
2022-11-05T09:25:33.416Z,38.25
2022-11-05T09:28:16.562Z,34.50
2022-11-05T09:30:47.772Z,38.92
2022-11-05T09:33:16.914Z,42.83
2022-11-05T09:35:45.539Z,36.00
2022-11-05T09:38:14.059Z,40.03
2022-11-05T09:40:45.439Z,41.33
2022-11-05T09:43:20.584Z,34.83
2022-11-05T09:45:56.579Z,37.00
2022-11-05T09:48:28.959Z,38.28
2022-11-05T09:50:58.318Z,37.15
2022-11-05T09:53:26.419Z,46.40
2022-11-05T09:56:00.342Z,40.55
2022-11-05T09:58:38.824Z,41.35
2022-11-05T10:01:14.422Z,38.38
2022-11-05T10:03:54.787Z,38.55
2022-11-05T10:06:26.025Z,42.17
2022-11-05T10:09:07.031Z,37.78
2022-11-05T10:11:41.922Z,42.72
2022-11-05T10:14:29.129Z,42.53
2022-11-05T10:17:22.421Z,34.47
2022-11-05T10:20:15.131Z,39.28
2022-11-05T10:22:48.271Z,40.55
2022-11-05T10:27:55.068Z,35.78
2022-11-05T10:30:23.202Z,40.65
2022-11-05T10:32:56.212Z,37.83
2022-11-05T10:35:26.859Z,38.35
2022-11-05T10:37:55.928Z,36.78
2022-11-05T10:40:30.741Z,40.05
2022-11-05T10:43:40.917Z,39.15
2022-11-05T10:46:33.856Z,36.75
2022-11-05T10:49:28.972Z,40.00
2022-11-05T10:51:59.939Z,41.00
2022-11-05T10:54:35.190Z,41.53
2022-11-05T10:57:27.447Z,37.53
2022-11-05T11:00:14.941Z,43.03
2022-11-05T11:02:43.649Z,44.25
2022-11-05T11:05:19.300Z,42.05
2022-11-05T11:08:14.398Z,39.17
2022-11-05T11:11:02.742Z,40.50
2022-11-05T11:13:51.466Z,44.03
2022-11-05T11:16:26.454Z,44.35
2022-11-05T11:18:56.881Z,50.40
2022-11-05T11:21:26.274Z,42.13
2022-11-05T11:23:56.836Z,45.25
2022-11-05T11:26:28.996Z,44.75
2022-11-05T11:29:07.260Z,46.08
2022-11-05T11:31:39.352Z,45.42
2022-11-05T11:34:33.787Z,47.90
2022-11-05T11:37:22.312Z,42.83
2022-11-05T11:39:55.914Z,44.03
2022-11-05T11:42:39.340Z,43.97
2022-11-05T11:45:20.974Z,44.50
2022-11-05T11:47:50.997Z,44.45
2022-11-05T11:50:38.818Z,45.95
2022-11-05T11:53:26.042Z,47.08
2022-11-05T11:56:17.655Z,44.55
2022-11-05T11:58:57.768Z,48.60
2022-11-05T12:01:45.170Z,47.45
2022-11-05T12:04:32.636Z,50.80
2022-11-05T12:07:13.767Z,44.88
2022-11-05T12:10:10.018Z,52.45
2022-11-05T12:13:05.016Z,53.00
2022-11-05T12:15:53.969Z,49.60
2022-11-05T12:18:30.629Z,51.13
2022-11-05T12:20:58.660Z,50.15
2022-11-05T12:24:06.520Z,51.85
2022-11-05T12:27:19.344Z,51.80
2022-11-05T12:30:11.857Z,55.60
2022-11-05T12:33:17.659Z,55.40
2022-11-05T12:35:53.331Z,52.22
2022-11-05T12:38:44.706Z,59.22
2022-11-05T12:41:26.100Z,61.38
2022-11-05T12:44:15.523Z,62.28
2022-11-05T12:47:06.607Z,59.10
2022-11-05T12:49:40.279Z,52.47
2022-11-05T12:52:25.748Z,56.00
2022-11-05T12:55:03.269Z,55.78
2022-11-05T12:57:33.443Z,56.17
2022-11-05T13:00:04.468Z,57.65
2022-11-05T13:02:47.522Z,52.88
2022-11-05T13:05:30.419Z,57.28
2022-11-05T13:08:15.664Z,72.80
2022-11-05T13:10:51.895Z,61.00
2022-11-05T13:13:51.955Z,60.58
2022-11-05T13:16:55.462Z,62.60
2022-11-05T13:19:41.675Z,61.47
2022-11-05T13:22:28.333Z,53.53
2022-11-05T13:25:28.109Z,63.20
2022-11-05T13:28:18.137Z,59.00
2022-11-05T13:30:52.773Z,63.85
2022-11-05T13:33:25.939Z,62.85
2022-11-05T13:36:24.271Z,64.60
2022-11-05T13:39:20.117Z,61.60
2022-11-05T13:42:16.549Z,56.45
2022-11-05T13:45:08.621Z,56.08
2022-11-05T13:48:00.665Z,59.08
2022-11-05T13:50:31.396Z,52.95
2022-11-05T13:53:01.791Z,51.88
2022-11-05T13:55:32.574Z,47.33
2022-11-05T13:58:15.590Z,50.78
2022-11-05T14:01:05.496Z,51.03
2022-11-05T14:03:33.397Z,57.38
2022-11-05T14:06:07.655Z,58.00
2022-11-05T14:11:31.708Z,52.95
2022-11-05T14:14:04.560Z,51.83
2022-11-05T14:17:07.770Z,54.83
2022-11-05T14:19:58.074Z,59.85
2022-11-05T14:22:32.145Z,56.45
2022-11-05T14:25:19.313Z,50.67
2022-11-05T14:27:50.539Z,57.75
2022-11-05T14:30:41.587Z,57.50
2022-11-05T14:33:24.491Z,56.15
2022-11-05T14:35:53.833Z,59.10
2022-11-05T14:38:27.891Z,65.20
2022-11-05T14:41:03.529Z,58.05
2022-11-05T14:43:33.911Z,56.30
2022-11-05T14:46:06.181Z,53.85
2022-11-05T14:48:40.421Z,52.25
2022-11-05T14:54:22.787Z,59.92
2022-11-05T14:56:59.972Z,56.80
2022-11-05T14:59:28.351Z,59.95
2022-11-05T15:02:03.493Z,56.78
2022-11-05T15:04:45.347Z,63.88
2022-11-05T15:07:25.125Z,67.93
2022-11-05T15:09:59.004Z,61.92
2022-11-05T15:12:52.166Z,65.50
2022-11-05T15:15:40.217Z,67.75
2022-11-05T15:18:38.760Z,69.10
2022-11-05T15:21:13.382Z,64.50
2022-11-05T15:23:43.511Z,62.78
2022-11-05T15:26:26.793Z,68.78
2022-11-05T15:28:55.900Z,63.90
2022-11-05T15:31:26.926Z,56.67
2022-11-05T15:34:23.472Z,63.17
2022-11-05T15:37:00.635Z,66.78
2022-11-05T15:39:42.100Z,66.40
2022-11-05T15:42:15.819Z,72.07
2022-11-05T15:44:49.038Z,73.22
2022-11-05T15:47:20.932Z,77.90
2022-11-05T15:49:54.891Z,77.05
2022-11-05T15:52:34.747Z,78.03
2022-11-05T15:55:13.886Z,81.25
2022-11-05T15:57:50.462Z,77.22
2022-11-05T16:00:22.341Z,79.78
2022-11-05T16:03:00.661Z,83.20
2022-11-05T16:05:33.708Z,82.00
2022-11-05T16:08:04.390Z,80.55
2022-11-05T16:10:37.995Z,76.22
2022-11-05T16:13:32.491Z,73.93
2022-11-05T16:16:13.388Z,67.35
2022-11-05T16:18:42.516Z,62.50
2022-11-05T16:21:12.671Z,67.68
2022-11-05T16:24:02.114Z,68.20
2022-11-05T16:27:01.780Z,67.88
2022-11-05T16:29:36.882Z,58.65
2022-11-05T16:32:30.549Z,67.20
2022-11-05T16:35:04.828Z,66.25
2022-11-05T16:37:40.023Z,75.75
2022-11-05T16:40:26.708Z,70.07
2022-11-05T16:42:55.229Z,73.28
2022-11-05T16:45:24.882Z,67.55
2022-11-05T16:47:52.896Z,74.68
2022-11-05T16:50:30.017Z,77.72
2022-11-05T16:52:57.657Z,74.90
2022-11-05T16:55:25.599Z,68.88
2022-11-05T16:57:55.270Z,73.65
2022-11-05T17:00:24.155Z,67.65
2022-11-05T17:02:52.800Z,70.03
2022-11-05T17:05:27.863Z,75.80
2022-11-05T17:07:56.498Z,69.30
2022-11-05T17:10:25.871Z,64.70
2022-11-05T17:12:54.237Z,66.30
2022-11-05T17:15:31.281Z,68.13
2022-11-05T17:17:59.768Z,70.30
2022-11-05T17:20:39.486Z,68.85
2022-11-05T17:23:11.109Z,71.57
2022-11-05T17:25:40.804Z,72.28
2022-11-05T17:28:09.674Z,75.47
2022-11-05T17:30:41.428Z,74.85
2022-11-05T17:33:11.859Z,75.00
2022-11-05T17:35:41.138Z,77.00
2022-11-05T17:38:09.815Z,85.60
2022-11-05T17:40:38.499Z,81.05
2022-11-05T17:43:06.555Z,80.78
2022-11-05T17:45:34.789Z,81.65
2022-11-05T17:48:03.378Z,87.55
2022-11-05T17:50:31.364Z,85.72
2022-11-05T17:52:58.983Z,85.00
2022-11-05T17:55:26.967Z,87.72
2022-11-05T17:57:54.639Z,87.20
2022-11-05T18:00:24.125Z,87.60
2022-11-05T18:02:53.767Z,92.85
2022-11-05T18:05:22.850Z,91.53
2022-11-05T18:07:51.184Z,101.13
2022-11-05T18:10:19.225Z,103.07
2022-11-05T18:12:47.194Z,95.97
2022-11-05T18:15:16.424Z,105.28
2022-11-05T18:17:45.705Z,108.00
2022-11-05T18:20:18.959Z,99.97
2022-11-05T18:22:51.077Z,101.07
2022-11-05T18:25:19.286Z,94.47
2022-11-05T18:27:47.094Z,102.18
2022-11-05T18:30:15.964Z,95.95
2022-11-05T18:32:45.246Z,92.90
2022-11-05T18:35:14.522Z,99.53
2022-11-05T18:37:42.791Z,92.75
2022-11-05T18:40:11.974Z,99.85
2022-11-05T18:42:39.931Z,93.38
2022-11-05T18:45:09.081Z,95.38
2022-11-05T18:47:37.117Z,85.90
2022-11-05T18:50:06.751Z,90.00
2022-11-05T18:52:34.526Z,91.80
2022-11-05T18:55:02.462Z,98.95
2022-11-05T18:57:32.374Z,96.88
2022-11-05T19:00:00.371Z,90.38
2022-11-05T19:02:28.201Z,94.65
2022-11-05T19:05:26.758Z,91.43
2022-11-05T19:07:43.972Z,95.93
2022-11-05T19:10:11.864Z,98.15
2022-11-05T19:12:39.620Z,91.38
2022-11-05T19:15:08.337Z,94.65
2022-11-05T19:17:36.541Z,90.13
2022-11-05T19:20:05.671Z,102.03
2022-11-05T19:22:33.430Z,97.10
2022-11-05T19:25:01.536Z,98.82
2022-11-05T19:27:29.217Z,93.18
2022-11-05T19:29:57.223Z,101.00
2022-11-05T19:32:25.039Z,96.95
2022-11-05T19:34:53.099Z,102.22
2022-11-05T19:37:20.824Z,114.88
2022-11-05T19:39:48.971Z,109.25
2022-11-05T19:42:16.613Z,103.00
2022-11-05T19:44:44.682Z,116.25
2022-11-05T19:47:12.359Z,104.95
2022-11-05T19:49:40.300Z,117.72
2022-11-05T19:52:08.026Z,106.40
2022-11-05T19:54:36.041Z,106.43
2022-11-05T19:57:03.780Z,98.45
2022-11-05T19:59:31.889Z,99.22
2022-11-05T20:01:59.687Z,99.50
2022-11-05T20:04:27.839Z,101.32
2022-11-05T20:06:55.603Z,100.28
2022-11-05T20:09:23.879Z,98.88
2022-11-05T20:11:56.802Z,92.97
2022-11-05T20:14:25.927Z,83.73
2022-11-05T20:16:53.994Z,88.45
2022-11-05T20:19:23.193Z,83.13
2022-11-05T20:21:51.175Z,83.38
2022-11-05T20:24:24.662Z,78.70
2022-11-05T20:26:57.116Z,80.10
2022-11-05T20:29:32.212Z,74.18
2022-11-05T20:32:03.827Z,71.57
2022-11-05T20:34:33.239Z,66.43
2022-11-05T20:37:01.591Z,70.60
2022-11-05T20:39:29.724Z,61.42
2022-11-05T20:41:57.450Z,60.65
2022-11-05T20:44:25.323Z,57.53
2022-11-05T20:46:53.192Z,59.13
2022-11-05T20:49:25.154Z,63.85
2022-11-05T20:51:54.052Z,62.55
2022-11-05T20:54:22.677Z,57.42
2022-11-05T20:56:50.523Z,56.75
2022-11-05T20:59:19.486Z,60.53
2022-11-05T21:01:47.328Z,52.50
2022-11-05T21:04:15.522Z,54.33
2022-11-05T21:06:43.219Z,50.13
2022-11-05T21:09:11.460Z,49.08
2022-11-05T21:11:57.583Z,50.22
2022-11-05T21:14:25.482Z,48.53
2022-11-05T21:16:53.150Z,50.50
2022-11-05T21:19:23.977Z,54.47
2022-11-05T21:21:51.736Z,62.05
2022-11-05T21:24:19.679Z,51.97
2022-11-05T21:26:50.034Z,55.55
2022-11-05T21:29:18.647Z,57.13
2022-11-05T21:31:47.034Z,55.92
2022-11-05T21:34:15.851Z,62.47
2022-11-05T21:36:43.487Z,64.70
2022-11-05T21:39:13.654Z,61.88
2022-11-05T21:41:42.826Z,65.10
2022-11-05T21:44:10.890Z,61.20
2022-11-05T21:46:38.583Z,63.20
2022-11-05T21:49:06.601Z,62.45
2022-11-05T21:51:52.745Z,66.38
2022-11-05T21:54:39.254Z,64.72
2022-11-05T21:57:31.953Z,69.40
2022-11-05T22:00:01.420Z,54.08
2022-11-05T22:02:32.434Z,65.13
2022-11-05T22:05:02.254Z,58.47
2022-11-05T22:07:35.846Z,62.85
2022-11-05T22:10:13.290Z,52.70
2022-11-05T22:12:44.535Z,53.63
2022-11-05T22:15:13.007Z,51.25
2022-11-05T22:17:45.481Z,57.72
2022-11-05T22:20:14.758Z,53.30
2022-11-05T22:22:42.546Z,53.88
2022-11-05T22:25:10.619Z,52.90
2022-11-05T22:27:38.509Z,47.58
2022-11-05T22:30:06.910Z,56.58
2022-11-05T22:32:34.669Z,55.80
2022-11-05T22:35:02.630Z,52.28
2022-11-05T22:37:30.254Z,50.10
2022-11-05T22:39:58.254Z,46.08
2022-11-05T22:42:26.066Z,46.97
2022-11-05T22:44:54.216Z,55.03
2022-11-05T22:47:21.831Z,47.72
2022-11-05T22:49:50.647Z,52.72
2022-11-05T22:52:18.285Z,51.05
2022-11-05T22:54:47.791Z,46.80
2022-11-05T22:57:15.585Z,55.75
2022-11-05T22:59:43.554Z,53.08
2022-11-05T23:02:11.485Z,54.42
2022-11-05T23:04:39.716Z,60.10
2022-11-05T23:07:27.847Z,50.72
2022-11-05T23:10:15.043Z,57.17
2022-11-05T23:12:44.488Z,61.83
2022-11-05T23:15:33.424Z,61.00
2022-11-05T23:18:19.817Z,68.07
2022-11-05T23:21:06.499Z,64.25
2022-11-05T23:23:52.717Z,63.08
2022-11-05T23:26:38.897Z,59.80
2022-11-05T23:29:06.699Z,62.92
2022-11-05T23:31:53.019Z,62.97
2022-11-05T23:34:20.702Z,62.45
2022-11-05T23:37:07.075Z,65.68
2022-11-05T23:39:41.205Z,61.60
2022-11-05T23:42:29.477Z,65.47
2022-11-05T23:45:16.214Z,68.60
2022-11-05T23:48:02.527Z,61.22
2022-11-05T23:50:35.571Z,61.15
2022-11-05T23:53:08.127Z,62.72
2022-11-05T23:55:36.354Z,68.60
2022-11-05T23:58:04.419Z,68.63
